sensor_id;sensor_type;location;lat;lon;timestamp;P1;durP1;ratioP1;P2;durP2;ratioP2
10100;SDS011;5090;51.258;4.436;2023-02-01T00:01:50;21.27;;;6.60;;
10100;SDS011;5090;51.258;4.436;2023-02-01T00:04:18;26.00;;;6.40;;
10100;SDS011;5090;51.258;4.436;2023-02-01T00:06:46;27.33;;;7.57;;
10100;SDS011;5090;51.258;4.436;2023-02-01T00:09:14;22.90;;;7.10;;
10100;SDS011;5090;51.258;4.436;2023-02-01T00:11:42;22.40;;;7.03;;
10100;SDS011;5090;51.258;4.436;2023-02-01T00:14:11;23.27;;;6.87;;
10100;SDS011;5090;51.258;4.436;2023-02-01T00:16:39;19.77;;;7.00;;
10100;SDS011;5090;51.258;4.436;2023-02-01T00:19:09;23.20;;;6.33;;
10100;SDS011;5090;51.258;4.436;2023-02-01T00:21:35;27.63;;;6.60;;
10100;SDS011;5090;51.258;4.436;2023-02-01T00:24:04;21.33;;;6.70;;
10100;SDS011;5090;51.258;4.436;2023-02-01T00:26:40;20.07;;;6.30;;
10100;SDS011;5090;51.258;4.436;2023-02-01T00:29:13;21.37;;;7.07;;
10100;SDS011;5090;51.258;4.436;2023-02-01T00:31:40;32.30;;;7.23;;
10100;SDS011;5090;51.258;4.436;2023-02-01T00:34:09;25.43;;;7.67;;
10100;SDS011;5090;51.258;4.436;2023-02-01T00:36:36;20.27;;;6.17;;
10100;SDS011;5090;51.258;4.436;2023-02-01T00:39:04;27.97;;;7.07;;
10100;SDS011;5090;51.258;4.436;2023-02-01T00:41:32;20.10;;;7.47;;
10100;SDS011;5090;51.258;4.436;2023-02-01T00:44:01;22.63;;;6.60;;
10100;SDS011;5090;51.258;4.436;2023-02-01T00:46:29;26.53;;;6.70;;
10100;SDS011;5090;51.258;4.436;2023-02-01T00:48:57;18.57;;;6.93;;
10100;SDS011;5090;51.258;4.436;2023-02-01T00:51:26;24.00;;;7.10;;
10100;SDS011;5090;51.258;4.436;2023-02-01T00:53:53;25.77;;;6.50;;
10100;SDS011;5090;51.258;4.436;2023-02-01T00:56:22;20.27;;;6.20;;
10100;SDS011;5090;51.258;4.436;2023-02-01T00:58:50;22.43;;;6.33;;
10100;SDS011;5090;51.258;4.436;2023-02-01T01:01:20;24.60;;;6.33;;
10100;SDS011;5090;51.258;4.436;2023-02-01T01:03:48;29.30;;;6.73;;
10100;SDS011;5090;51.258;4.436;2023-02-01T01:06:16;21.43;;;5.80;;
10100;SDS011;5090;51.258;4.436;2023-02-01T01:08:43;23.47;;;6.33;;
10100;SDS011;5090;51.258;4.436;2023-02-01T01:11:14;22.37;;;5.57;;
10100;SDS011;5090;51.258;4.436;2023-02-01T01:13:41;20.93;;;5.03;;
10100;SDS011;5090;51.258;4.436;2023-02-01T01:16:09;13.70;;;4.60;;
10100;SDS011;5090;51.258;4.436;2023-02-01T01:18:37;21.20;;;5.70;;
10100;SDS011;5090;51.258;4.436;2023-02-01T01:21:06;22.20;;;5.20;;
10100;SDS011;5090;51.258;4.436;2023-02-01T01:23:34;19.90;;;5.83;;
10100;SDS011;5090;51.258;4.436;2023-02-01T01:26:04;23.77;;;4.97;;
10100;SDS011;5090;51.258;4.436;2023-02-01T01:28:32;19.27;;;4.40;;
10100;SDS011;5090;51.258;4.436;2023-02-01T01:31:00;21.80;;;5.33;;
10100;SDS011;5090;51.258;4.436;2023-02-01T01:33:28;17.27;;;4.30;;
10100;SDS011;5090;51.258;4.436;2023-02-01T01:35:56;17.27;;;5.20;;
10100;SDS011;5090;51.258;4.436;2023-02-01T01:38:25;27.83;;;5.60;;
10100;SDS011;5090;51.258;4.436;2023-02-01T01:40:53;19.43;;;4.97;;
10100;SDS011;5090;51.258;4.436;2023-02-01T01:43:21;21.00;;;4.73;;
10100;SDS011;5090;51.258;4.436;2023-02-01T01:45:49;20.63;;;4.70;;
10100;SDS011;5090;51.258;4.436;2023-02-01T01:48:21;14.00;;;3.07;;
10100;SDS011;5090;51.258;4.436;2023-02-01T01:50:48;15.73;;;3.90;;
10100;SDS011;5090;51.258;4.436;2023-02-01T01:53:16;18.47;;;4.07;;
10100;SDS011;5090;51.258;4.436;2023-02-01T01:55:44;18.07;;;4.07;;
10100;SDS011;5090;51.258;4.436;2023-02-01T01:58:14;26.87;;;4.87;;
10100;SDS011;5090;51.258;4.436;2023-02-01T02:00:40;17.23;;;3.93;;
10100;SDS011;5090;51.258;4.436;2023-02-01T02:03:11;15.73;;;4.37;;
10100;SDS011;5090;51.258;4.436;2023-02-01T02:05:37;24.50;;;4.27;;
10100;SDS011;5090;51.258;4.436;2023-02-01T02:08:05;11.80;;;4.33;;
10100;SDS011;5090;51.258;4.436;2023-02-01T02:10:33;12.30;;;3.57;;
10100;SDS011;5090;51.258;4.436;2023-02-01T02:13:07;14.00;;;4.23;;
10100;SDS011;5090;51.258;4.436;2023-02-01T02:15:36;21.73;;;4.30;;
10100;SDS011;5090;51.258;4.436;2023-02-01T02:18:05;18.03;;;4.70;;
10100;SDS011;5090;51.258;4.436;2023-02-01T02:20:51;19.73;;;4.43;;
10100;SDS011;5090;51.258;4.436;2023-02-01T02:26:10;22.23;;;4.70;;
10100;SDS011;5090;51.258;4.436;2023-02-01T02:29:15;22.03;;;4.97;;
10100;SDS011;5090;51.258;4.436;2023-02-01T02:31:23;22.93;;;4.23;;
10100;SDS011;5090;51.258;4.436;2023-02-01T02:33:57;17.07;;;4.33;;
10100;SDS011;5090;51.258;4.436;2023-02-01T02:36:30;15.87;;;3.57;;
10100;SDS011;5090;51.258;4.436;2023-02-01T02:39:03;19.57;;;3.67;;
10100;SDS011;5090;51.258;4.436;2023-02-01T02:41:33;13.37;;;3.60;;
10100;SDS011;5090;51.258;4.436;2023-02-01T02:44:10;17.17;;;4.10;;
10100;SDS011;5090;51.258;4.436;2023-02-01T02:46:45;21.23;;;3.80;;
10100;SDS011;5090;51.258;4.436;2023-02-01T02:49:19;18.47;;;3.77;;
10100;SDS011;5090;51.258;4.436;2023-02-01T02:51:48;20.00;;;4.07;;
10100;SDS011;5090;51.258;4.436;2023-02-01T02:54:22;17.53;;;3.80;;
10100;SDS011;5090;51.258;4.436;2023-02-01T02:56:56;18.87;;;3.83;;
10100;SDS011;5090;51.258;4.436;2023-02-01T02:59:29;20.40;;;3.57;;
10100;SDS011;5090;51.258;4.436;2023-02-01T03:02:04;14.13;;;4.10;;
10100;SDS011;5090;51.258;4.436;2023-02-01T03:04:38;13.07;;;3.77;;
10100;SDS011;5090;51.258;4.436;2023-02-01T03:07:15;21.23;;;4.43;;
10100;SDS011;5090;51.258;4.436;2023-02-01T03:09:42;18.03;;;3.80;;
10100;SDS011;5090;51.258;4.436;2023-02-01T03:12:11;16.27;;;4.10;;
10100;SDS011;5090;51.258;4.436;2023-02-01T03:14:44;14.13;;;3.90;;
10100;SDS011;5090;51.258;4.436;2023-02-01T03:17:13;21.13;;;3.67;;
10100;SDS011;5090;51.258;4.436;2023-02-01T03:19:42;22.07;;;3.60;;
10100;SDS011;5090;51.258;4.436;2023-02-01T03:22:11;22.87;;;3.47;;
10100;SDS011;5090;51.258;4.436;2023-02-01T03:24:41;15.93;;;4.37;;
10100;SDS011;5090;51.258;4.436;2023-02-01T03:27:12;16.27;;;3.40;;
10100;SDS011;5090;51.258;4.436;2023-02-01T03:29:45;19.60;;;3.10;;
10100;SDS011;5090;51.258;4.436;2023-02-01T03:32:09;16.17;;;3.60;;
10100;SDS011;5090;51.258;4.436;2023-02-01T03:34:38;20.70;;;4.20;;
10100;SDS011;5090;51.258;4.436;2023-02-01T03:37:07;12.43;;;4.17;;
10100;SDS011;5090;51.258;4.436;2023-02-01T03:39:36;16.20;;;3.73;;
10100;SDS011;5090;51.258;4.436;2023-02-01T03:42:03;24.70;;;4.10;;
10100;SDS011;5090;51.258;4.436;2023-02-01T03:44:32;20.50;;;4.13;;
10100;SDS011;5090;51.258;4.436;2023-02-01T03:46:59;21.93;;;4.03;;
10100;SDS011;5090;51.258;4.436;2023-02-01T03:49:28;25.10;;;4.97;;
10100;SDS011;5090;51.258;4.436;2023-02-01T03:51:56;24.33;;;5.40;;
10100;SDS011;5090;51.258;4.436;2023-02-01T03:54:24;22.93;;;4.97;;
10100;SDS011;5090;51.258;4.436;2023-02-01T03:56:52;25.53;;;4.53;;
10100;SDS011;5090;51.258;4.436;2023-02-01T03:59:20;15.77;;;4.17;;
10100;SDS011;5090;51.258;4.436;2023-02-01T04:01:48;15.73;;;4.30;;
10100;SDS011;5090;51.258;4.436;2023-02-01T04:04:16;19.87;;;4.67;;
10100;SDS011;5090;51.258;4.436;2023-02-01T04:06:49;27.50;;;5.43;;
10100;SDS011;5090;51.258;4.436;2023-02-01T04:09:16;20.77;;;4.83;;
10100;SDS011;5090;51.258;4.436;2023-02-01T04:11:44;17.40;;;4.50;;
10100;SDS011;5090;51.258;4.436;2023-02-01T04:14:13;20.60;;;5.03;;
10100;SDS011;5090;51.258;4.436;2023-02-01T04:16:41;19.63;;;4.83;;
10100;SDS011;5090;51.258;4.436;2023-02-01T04:19:09;27.57;;;5.47;;
10100;SDS011;5090;51.258;4.436;2023-02-01T04:21:37;19.97;;;4.73;;
10100;SDS011;5090;51.258;4.436;2023-02-01T04:24:06;18.17;;;5.03;;
10100;SDS011;5090;51.258;4.436;2023-02-01T04:26:34;26.63;;;5.40;;
10100;SDS011;5090;51.258;4.436;2023-02-01T04:29:02;25.23;;;4.53;;
10100;SDS011;5090;51.258;4.436;2023-02-01T04:31:30;28.20;;;5.13;;
10100;SDS011;5090;51.258;4.436;2023-02-01T04:33:59;22.87;;;4.70;;
10100;SDS011;5090;51.258;4.436;2023-02-01T04:36:27;20.57;;;4.20;;
10100;SDS011;5090;51.258;4.436;2023-02-01T04:38:55;29.30;;;5.47;;
10100;SDS011;5090;51.258;4.436;2023-02-01T04:41:23;25.97;;;4.90;;
10100;SDS011;5090;51.258;4.436;2023-02-01T04:43:51;22.83;;;4.97;;
10100;SDS011;5090;51.258;4.436;2023-02-01T04:46:20;21.60;;;4.90;;
10100;SDS011;5090;51.258;4.436;2023-02-01T04:48:48;23.77;;;4.87;;
10100;SDS011;5090;51.258;4.436;2023-02-01T04:51:16;21.57;;;4.53;;
10100;SDS011;5090;51.258;4.436;2023-02-01T04:53:44;17.07;;;4.37;;
10100;SDS011;5090;51.258;4.436;2023-02-01T04:56:13;23.13;;;4.80;;
10100;SDS011;5090;51.258;4.436;2023-02-01T04:58:41;16.53;;;3.73;;
10100;SDS011;5090;51.258;4.436;2023-02-01T05:01:09;19.50;;;5.27;;
10100;SDS011;5090;51.258;4.436;2023-02-01T05:03:37;21.37;;;4.83;;
10100;SDS011;5090;51.258;4.436;2023-02-01T05:06:05;24.77;;;4.93;;
10100;SDS011;5090;51.258;4.436;2023-02-01T05:08:34;20.10;;;5.27;;
10100;SDS011;5090;51.258;4.436;2023-02-01T05:11:02;24.33;;;5.03;;
10100;SDS011;5090;51.258;4.436;2023-02-01T05:13:30;20.03;;;4.70;;
10100;SDS011;5090;51.258;4.436;2023-02-01T05:16:04;20.70;;;5.33;;
10100;SDS011;5090;51.258;4.436;2023-02-01T05:18:33;20.83;;;4.70;;
10100;SDS011;5090;51.258;4.436;2023-02-01T05:21:01;25.87;;;4.97;;
10100;SDS011;5090;51.258;4.436;2023-02-01T05:23:29;20.73;;;5.07;;
10100;SDS011;5090;51.258;4.436;2023-02-01T05:25:58;20.77;;;4.17;;
10100;SDS011;5090;51.258;4.436;2023-02-01T05:28:26;23.80;;;5.00;;
10100;SDS011;5090;51.258;4.436;2023-02-01T05:30:54;15.73;;;4.43;;
10100;SDS011;5090;51.258;4.436;2023-02-01T05:33:22;19.03;;;4.83;;
10100;SDS011;5090;51.258;4.436;2023-02-01T05:35:50;24.30;;;4.87;;
10100;SDS011;5090;51.258;4.436;2023-02-01T05:38:18;18.37;;;4.40;;
10100;SDS011;5090;51.258;4.436;2023-02-01T05:40:47;23.03;;;4.60;;
10100;SDS011;5090;51.258;4.436;2023-02-01T05:43:15;27.50;;;6.37;;
10100;SDS011;5090;51.258;4.436;2023-02-01T05:45:43;28.07;;;5.70;;
10100;SDS011;5090;51.258;4.436;2023-02-01T05:48:11;20.63;;;4.73;;
10100;SDS011;5090;51.258;4.436;2023-02-01T05:50:39;19.93;;;5.10;;
10100;SDS011;5090;51.258;4.436;2023-02-01T05:53:08;27.33;;;5.30;;
10100;SDS011;5090;51.258;4.436;2023-02-01T05:55:36;24.43;;;4.20;;
10100;SDS011;5090;51.258;4.436;2023-02-01T05:58:04;17.73;;;4.23;;
10100;SDS011;5090;51.258;4.436;2023-02-01T06:00:32;19.67;;;4.67;;
10100;SDS011;5090;51.258;4.436;2023-02-01T06:03:00;20.80;;;4.70;;
10100;SDS011;5090;51.258;4.436;2023-02-01T06:05:30;17.03;;;4.47;;
10100;SDS011;5090;51.258;4.436;2023-02-01T06:07:58;14.67;;;4.67;;
10100;SDS011;5090;51.258;4.436;2023-02-01T06:10:26;23.40;;;4.57;;
10100;SDS011;5090;51.258;4.436;2023-02-01T06:12:54;15.37;;;4.70;;
10100;SDS011;5090;51.258;4.436;2023-02-01T06:15:23;23.13;;;4.07;;
10100;SDS011;5090;51.258;4.436;2023-02-01T06:17:51;23.60;;;5.20;;
10100;SDS011;5090;51.258;4.436;2023-02-01T06:20:19;27.20;;;4.70;;
10100;SDS011;5090;51.258;4.436;2023-02-01T06:22:47;24.17;;;5.40;;
10100;SDS011;5090;51.258;4.436;2023-02-01T06:25:15;29.07;;;4.40;;
10100;SDS011;5090;51.258;4.436;2023-02-01T06:27:43;19.03;;;5.60;;
10100;SDS011;5090;51.258;4.436;2023-02-01T06:30:12;25.83;;;5.20;;
10100;SDS011;5090;51.258;4.436;2023-02-01T06:32:41;18.33;;;4.57;;
10100;SDS011;5090;51.258;4.436;2023-02-01T06:35:09;28.23;;;4.63;;
10100;SDS011;5090;51.258;4.436;2023-02-01T06:37:38;23.80;;;5.57;;
10100;SDS011;5090;51.258;4.436;2023-02-01T06:40:07;22.10;;;4.23;;
10100;SDS011;5090;51.258;4.436;2023-02-01T06:42:35;19.17;;;4.30;;
10100;SDS011;5090;51.258;4.436;2023-02-01T06:45:04;20.93;;;4.33;;
10100;SDS011;5090;51.258;4.436;2023-02-01T06:47:33;22.23;;;4.13;;
10100;SDS011;5090;51.258;4.436;2023-02-01T06:50:01;22.70;;;4.50;;
10100;SDS011;5090;51.258;4.436;2023-02-01T06:52:29;20.03;;;4.83;;
10100;SDS011;5090;51.258;4.436;2023-02-01T06:54:57;24.67;;;4.47;;
10100;SDS011;5090;51.258;4.436;2023-02-01T06:57:26;16.97;;;3.73;;
10100;SDS011;5090;51.258;4.436;2023-02-01T06:59:54;19.20;;;5.40;;
10100;SDS011;5090;51.258;4.436;2023-02-01T07:02:22;18.90;;;4.13;;
10100;SDS011;5090;51.258;4.436;2023-02-01T07:04:50;17.03;;;4.13;;
10100;SDS011;5090;51.258;4.436;2023-02-01T07:07:18;18.10;;;4.17;;
10100;SDS011;5090;51.258;4.436;2023-02-01T07:09:46;20.63;;;4.13;;
10100;SDS011;5090;51.258;4.436;2023-02-01T07:12:15;15.67;;;4.77;;
10100;SDS011;5090;51.258;4.436;2023-02-01T07:14:43;18.70;;;5.30;;
10100;SDS011;5090;51.258;4.436;2023-02-01T07:17:11;19.87;;;5.17;;
10100;SDS011;5090;51.258;4.436;2023-02-01T07:19:40;25.37;;;5.57;;
10100;SDS011;5090;51.258;4.436;2023-02-01T07:22:08;20.93;;;4.70;;
10100;SDS011;5090;51.258;4.436;2023-02-01T07:24:36;19.70;;;4.77;;
10100;SDS011;5090;51.258;4.436;2023-02-01T07:27:04;15.60;;;4.73;;
10100;SDS011;5090;51.258;4.436;2023-02-01T07:29:32;17.97;;;4.67;;
10100;SDS011;5090;51.258;4.436;2023-02-01T07:32:01;24.60;;;5.17;;
10100;SDS011;5090;51.258;4.436;2023-02-01T07:34:30;23.33;;;4.20;;
10100;SDS011;5090;51.258;4.436;2023-02-01T07:36:58;19.20;;;4.63;;
10100;SDS011;5090;51.258;4.436;2023-02-01T07:39:26;28.10;;;5.20;;
10100;SDS011;5090;51.258;4.436;2023-02-01T07:41:55;23.93;;;5.37;;
10100;SDS011;5090;51.258;4.436;2023-02-01T07:44:23;17.70;;;4.40;;
10100;SDS011;5090;51.258;4.436;2023-02-01T07:46:52;23.77;;;6.10;;
10100;SDS011;5090;51.258;4.436;2023-02-01T07:49:20;23.73;;;5.83;;
10100;SDS011;5090;51.258;4.436;2023-02-01T07:51:48;22.20;;;5.00;;
10100;SDS011;5090;51.258;4.436;2023-02-01T07:54:16;28.57;;;6.83;;
10100;SDS011;5090;51.258;4.436;2023-02-01T07:56:44;28.87;;;5.37;;
10100;SDS011;5090;51.258;4.436;2023-02-01T07:59:13;27.23;;;5.67;;
10100;SDS011;5090;51.258;4.436;2023-02-01T08:01:41;28.53;;;5.43;;
10100;SDS011;5090;51.258;4.436;2023-02-01T08:04:10;26.57;;;6.07;;
10100;SDS011;5090;51.258;4.436;2023-02-01T08:06:37;28.47;;;6.57;;
10100;SDS011;5090;51.258;4.436;2023-02-01T08:09:06;24.77;;;6.87;;
10100;SDS011;5090;51.258;4.436;2023-02-01T08:11:34;21.63;;;5.50;;
10100;SDS011;5090;51.258;4.436;2023-02-01T08:14:02;24.70;;;5.27;;
10100;SDS011;5090;51.258;4.436;2023-02-01T08:16:30;24.87;;;4.93;;
10100;SDS011;5090;51.258;4.436;2023-02-01T08:18:58;26.57;;;4.70;;
10100;SDS011;5090;51.258;4.436;2023-02-01T08:21:27;21.27;;;4.93;;
10100;SDS011;5090;51.258;4.436;2023-02-01T08:23:55;21.10;;;4.97;;
10100;SDS011;5090;51.258;4.436;2023-02-01T08:26:24;15.83;;;6.00;;
10100;SDS011;5090;51.258;4.436;2023-02-01T08:28:53;22.27;;;4.60;;
10100;SDS011;5090;51.258;4.436;2023-02-01T08:31:21;19.60;;;5.50;;
10100;SDS011;5090;51.258;4.436;2023-02-01T08:33:50;23.87;;;5.60;;
10100;SDS011;5090;51.258;4.436;2023-02-01T08:36:16;20.33;;;6.40;;
10100;SDS011;5090;51.258;4.436;2023-02-01T08:38:45;23.93;;;5.67;;
10100;SDS011;5090;51.258;4.436;2023-02-01T08:41:14;22.20;;;5.00;;
10100;SDS011;5090;51.258;4.436;2023-02-01T08:43:41;18.23;;;5.43;;
10100;SDS011;5090;51.258;4.436;2023-02-01T08:46:09;22.97;;;5.73;;
10100;SDS011;5090;51.258;4.436;2023-02-01T08:48:38;25.97;;;5.20;;
10100;SDS011;5090;51.258;4.436;2023-02-01T08:51:07;21.33;;;5.03;;
10100;SDS011;5090;51.258;4.436;2023-02-01T08:53:34;21.60;;;5.07;;
10100;SDS011;5090;51.258;4.436;2023-02-01T08:56:02;18.37;;;5.17;;
10100;SDS011;5090;51.258;4.436;2023-02-01T08:58:30;14.87;;;3.97;;
10100;SDS011;5090;51.258;4.436;2023-02-01T09:01:02;16.87;;;4.50;;
10100;SDS011;5090;51.258;4.436;2023-02-01T09:03:30;24.27;;;4.43;;
10100;SDS011;5090;51.258;4.436;2023-02-01T09:06:01;18.73;;;4.93;;
10100;SDS011;5090;51.258;4.436;2023-02-01T09:08:29;19.63;;;5.33;;
10100;SDS011;5090;51.258;4.436;2023-02-01T09:10:58;18.57;;;4.53;;
10100;SDS011;5090;51.258;4.436;2023-02-01T09:13:26;15.50;;;3.80;;
10100;SDS011;5090;51.258;4.436;2023-02-01T09:15:54;22.97;;;4.37;;
10100;SDS011;5090;51.258;4.436;2023-02-01T09:18:22;18.63;;;5.43;;
10100;SDS011;5090;51.258;4.436;2023-02-01T09:20:50;21.47;;;5.57;;
10100;SDS011;5090;51.258;4.436;2023-02-01T09:23:19;26.50;;;5.30;;
10100;SDS011;5090;51.258;4.436;2023-02-01T09:25:48;24.53;;;5.50;;
10100;SDS011;5090;51.258;4.436;2023-02-01T09:28:18;21.47;;;5.27;;
10100;SDS011;5090;51.258;4.436;2023-02-01T09:30:47;22.80;;;5.27;;
10100;SDS011;5090;51.258;4.436;2023-02-01T09:33:15;20.33;;;5.33;;
10100;SDS011;5090;51.258;4.436;2023-02-01T09:35:43;17.80;;;4.43;;
10100;SDS011;5090;51.258;4.436;2023-02-01T09:38:11;21.57;;;4.40;;
10100;SDS011;5090;51.258;4.436;2023-02-01T09:40:40;21.43;;;4.80;;
10100;SDS011;5090;51.258;4.436;2023-02-01T09:43:26;22.47;;;6.80;;
10100;SDS011;5090;51.258;4.436;2023-02-01T09:48:28;16.87;;;4.20;;
10100;SDS011;5090;51.258;4.436;2023-02-01T09:50:55;19.83;;;5.20;;
10100;SDS011;5090;51.258;4.436;2023-02-01T09:53:25;13.63;;;4.37;;
10100;SDS011;5090;51.258;4.436;2023-02-01T09:55:53;20.90;;;4.10;;
10100;SDS011;5090;51.258;4.436;2023-02-01T09:58:21;20.83;;;4.57;;
10100;SDS011;5090;51.258;4.436;2023-02-01T10:00:50;25.13;;;4.70;;
10100;SDS011;5090;51.258;4.436;2023-02-01T10:03:17;14.13;;;3.83;;
10100;SDS011;5090;51.258;4.436;2023-02-01T10:05:53;22.93;;;4.63;;
10100;SDS011;5090;51.258;4.436;2023-02-01T10:08:26;19.93;;;4.03;;
10100;SDS011;5090;51.258;4.436;2023-02-01T10:10:56;22.90;;;3.93;;
10100;SDS011;5090;51.258;4.436;2023-02-01T10:16:00;12.40;;;3.10;;
10100;SDS011;5090;51.258;4.436;2023-02-01T10:18:34;16.57;;;3.67;;
10100;SDS011;5090;51.258;4.436;2023-02-01T10:21:10;18.57;;;3.10;;
10100;SDS011;5090;51.258;4.436;2023-02-01T10:23:46;12.67;;;2.77;;
10100;SDS011;5090;51.258;4.436;2023-02-01T10:28:47;14.13;;;2.97;;
10100;SDS011;5090;51.258;4.436;2023-02-01T10:31:19;12.67;;;2.43;;
10100;SDS011;5090;51.258;4.436;2023-02-01T10:33:49;16.00;;;3.37;;
10100;SDS011;5090;51.258;4.436;2023-02-01T10:36:22;14.70;;;2.80;;
10100;SDS011;5090;51.258;4.436;2023-02-01T10:38:49;11.70;;;3.47;;
10100;SDS011;5090;51.258;4.436;2023-02-01T10:41:19;16.17;;;2.97;;
10100;SDS011;5090;51.258;4.436;2023-02-01T10:43:47;17.23;;;2.67;;
10100;SDS011;5090;51.258;4.436;2023-02-01T10:46:14;14.07;;;3.00;;
10100;SDS011;5090;51.258;4.436;2023-02-01T10:48:42;14.60;;;3.30;;
10100;SDS011;5090;51.258;4.436;2023-02-01T10:51:14;13.17;;;2.50;;
10100;SDS011;5090;51.258;4.436;2023-02-01T10:53:46;13.57;;;2.80;;
10100;SDS011;5090;51.258;4.436;2023-02-01T10:56:12;13.17;;;2.90;;
10100;SDS011;5090;51.258;4.436;2023-02-01T10:58:44;17.40;;;3.07;;
10100;SDS011;5090;51.258;4.436;2023-02-01T11:01:16;18.87;;;3.40;;
10100;SDS011;5090;51.258;4.436;2023-02-01T11:03:45;13.73;;;3.23;;
10100;SDS011;5090;51.258;4.436;2023-02-01T11:08:49;11.93;;;3.00;;
10100;SDS011;5090;51.258;4.436;2023-02-01T11:11:16;12.90;;;2.67;;
10100;SDS011;5090;51.258;4.436;2023-02-01T11:13:45;11.53;;;2.10;;
10100;SDS011;5090;51.258;4.436;2023-02-01T11:16:13;18.40;;;2.60;;
10100;SDS011;5090;51.258;4.436;2023-02-01T11:18:41;16.17;;;3.00;;
10100;SDS011;5090;51.258;4.436;2023-02-01T11:21:10;12.90;;;2.37;;
10100;SDS011;5090;51.258;4.436;2023-02-01T11:23:39;14.10;;;2.33;;
10100;SDS011;5090;51.258;4.436;2023-02-01T11:26:23;10.20;;;2.50;;
10100;SDS011;5090;51.258;4.436;2023-02-01T11:28:53;12.23;;;2.13;;
10100;SDS011;5090;51.258;4.436;2023-02-01T11:31:19;12.77;;;2.37;;
10100;SDS011;5090;51.258;4.436;2023-02-01T11:33:49;15.83;;;2.50;;
10100;SDS011;5090;51.258;4.436;2023-02-01T11:36:16;14.50;;;2.30;;
10100;SDS011;5090;51.258;4.436;2023-02-01T11:38:51;8.97;;;1.90;;
10100;SDS011;5090;51.258;4.436;2023-02-01T11:41:21;21.37;;;3.30;;
10100;SDS011;5090;51.258;4.436;2023-02-01T11:44:19;20.93;;;3.10;;
10100;SDS011;5090;51.258;4.436;2023-02-01T11:46:28;19.53;;;2.40;;
10100;SDS011;5090;51.258;4.436;2023-02-01T11:48:55;16.00;;;2.93;;
10100;SDS011;5090;51.258;4.436;2023-02-01T11:54:19;10.57;;;2.40;;
10100;SDS011;5090;51.258;4.436;2023-02-01T11:56:48;14.43;;;2.40;;
10100;SDS011;5090;51.258;4.436;2023-02-01T11:59:22;13.10;;;2.77;;
10100;SDS011;5090;51.258;4.436;2023-02-01T12:01:59;14.30;;;2.17;;
10100;SDS011;5090;51.258;4.436;2023-02-01T12:04:35;10.70;;;2.40;;
10100;SDS011;5090;51.258;4.436;2023-02-01T12:07:01;15.77;;;2.50;;
10100;SDS011;5090;51.258;4.436;2023-02-01T12:12:18;11.43;;;2.37;;
10100;SDS011;5090;51.258;4.436;2023-02-01T12:14:50;16.87;;;2.70;;
10100;SDS011;5090;51.258;4.436;2023-02-01T12:17:29;13.13;;;2.90;;
10100;SDS011;5090;51.258;4.436;2023-02-01T12:19:59;11.90;;;2.43;;
10100;SDS011;5090;51.258;4.436;2023-02-01T12:22:35;11.27;;;1.90;;
10100;SDS011;5090;51.258;4.436;2023-02-01T12:25:09;15.43;;;2.47;;
10100;SDS011;5090;51.258;4.436;2023-02-01T12:27:40;15.37;;;3.27;;
10100;SDS011;5090;51.258;4.436;2023-02-01T12:30:21;11.30;;;2.13;;
10100;SDS011;5090;51.258;4.436;2023-02-01T12:32:55;15.83;;;2.77;;
10100;SDS011;5090;51.258;4.436;2023-02-01T12:36:31;12.33;;;2.80;;
10100;SDS011;5090;51.258;4.436;2023-02-01T12:38:08;13.37;;;2.43;;
10100;SDS011;5090;51.258;4.436;2023-02-01T12:43:18;21.87;;;3.17;;
10100;SDS011;5090;51.258;4.436;2023-02-01T12:45:47;13.00;;;2.47;;
10100;SDS011;5090;51.258;4.436;2023-02-01T12:48:21;10.30;;;2.50;;
10100;SDS011;5090;51.258;4.436;2023-02-01T12:50:48;18.67;;;3.00;;
10100;SDS011;5090;51.258;4.436;2023-02-01T12:53:23;15.23;;;3.20;;
10100;SDS011;5090;51.258;4.436;2023-02-01T12:55:53;12.53;;;2.73;;
10100;SDS011;5090;51.258;4.436;2023-02-01T12:58:22;15.13;;;3.27;;
10100;SDS011;5090;51.258;4.436;2023-02-01T13:03:28;13.20;;;3.20;;
10100;SDS011;5090;51.258;4.436;2023-02-01T13:05:58;13.27;;;2.87;;
10100;SDS011;5090;51.258;4.436;2023-02-01T13:08:34;14.17;;;3.30;;
10100;SDS011;5090;51.258;4.436;2023-02-01T13:11:07;11.17;;;2.37;;
10100;SDS011;5090;51.258;4.436;2023-02-01T13:13:44;17.43;;;2.90;;
10100;SDS011;5090;51.258;4.436;2023-02-01T13:18:43;12.93;;;3.03;;
10100;SDS011;5090;51.258;4.436;2023-02-01T13:21:13;19.00;;;3.07;;
10100;SDS011;5090;51.258;4.436;2023-02-01T13:23:40;19.37;;;3.27;;
10100;SDS011;5090;51.258;4.436;2023-02-01T13:26:11;17.67;;;2.97;;
10100;SDS011;5090;51.258;4.436;2023-02-01T13:28:44;17.50;;;3.87;;
10100;SDS011;5090;51.258;4.436;2023-02-01T13:31:23;19.87;;;3.87;;
10100;SDS011;5090;51.258;4.436;2023-02-01T13:39:24;16.80;;;2.80;;
10100;SDS011;5090;51.258;4.436;2023-02-01T13:42:12;13.90;;;3.33;;
10100;SDS011;5090;51.258;4.436;2023-02-01T13:44:38;14.10;;;2.23;;
10100;SDS011;5090;51.258;4.436;2023-02-01T13:47:21;16.90;;;3.03;;
10100;SDS011;5090;51.258;4.436;2023-02-01T13:49:48;11.87;;;2.70;;
10100;SDS011;5090;51.258;4.436;2023-02-01T13:52:26;14.43;;;2.60;;
10100;SDS011;5090;51.258;4.436;2023-02-01T13:55:02;13.83;;;3.50;;
10100;SDS011;5090;51.258;4.436;2023-02-01T13:57:37;9.37;;;3.03;;
10100;SDS011;5090;51.258;4.436;2023-02-01T14:00:07;13.37;;;3.17;;
10100;SDS011;5090;51.258;4.436;2023-02-01T14:02:36;23.50;;;3.90;;
10100;SDS011;5090;51.258;4.436;2023-02-01T14:05:04;17.13;;;2.70;;
10100;SDS011;5090;51.258;4.436;2023-02-01T14:07:33;13.23;;;2.70;;
10100;SDS011;5090;51.258;4.436;2023-02-01T14:12:46;11.17;;;2.80;;
10100;SDS011;5090;51.258;4.436;2023-02-01T14:15:19;13.00;;;3.10;;
10100;SDS011;5090;51.258;4.436;2023-02-01T14:17:46;20.87;;;2.90;;
10100;SDS011;5090;51.258;4.436;2023-02-01T14:22:49;13.27;;;3.73;;
10100;SDS011;5090;51.258;4.436;2023-02-01T14:25:23;12.00;;;2.50;;
10100;SDS011;5090;51.258;4.436;2023-02-01T14:27:52;16.57;;;2.97;;
10100;SDS011;5090;51.258;4.436;2023-02-01T14:30:19;13.60;;;2.67;;
10100;SDS011;5090;51.258;4.436;2023-02-01T14:32:53;14.93;;;3.07;;
10100;SDS011;5090;51.258;4.436;2023-02-01T14:35:23;13.53;;;3.50;;
10100;SDS011;5090;51.258;4.436;2023-02-01T14:37:58;22.23;;;3.00;;
10100;SDS011;5090;51.258;4.436;2023-02-01T14:40:24;11.70;;;2.77;;
10100;SDS011;5090;51.258;4.436;2023-02-01T14:42:52;16.70;;;2.83;;
10100;SDS011;5090;51.258;4.436;2023-02-01T14:50:47;14.40;;;3.37;;
10100;SDS011;5090;51.258;4.436;2023-02-01T14:53:18;19.93;;;4.67;;
10100;SDS011;5090;51.258;4.436;2023-02-01T14:55:52;18.67;;;3.27;;
10100;SDS011;5090;51.258;4.436;2023-02-01T14:58:27;13.63;;;3.20;;
10100;SDS011;5090;51.258;4.436;2023-02-01T15:00:55;16.97;;;3.03;;
10100;SDS011;5090;51.258;4.436;2023-02-01T15:06:26;23.30;;;3.67;;
10100;SDS011;5090;51.258;4.436;2023-02-01T15:08:54;23.67;;;3.90;;
10100;SDS011;5090;51.258;4.436;2023-02-01T15:11:22;18.47;;;3.20;;
10100;SDS011;5090;51.258;4.436;2023-02-01T15:13:51;19.87;;;4.20;;
10100;SDS011;5090;51.258;4.436;2023-02-01T15:16:20;24.23;;;3.67;;
10100;SDS011;5090;51.258;4.436;2023-02-01T15:18:47;16.83;;;3.10;;
10100;SDS011;5090;51.258;4.436;2023-02-01T15:21:18;17.63;;;2.83;;
10100;SDS011;5090;51.258;4.436;2023-02-01T15:23:46;16.57;;;3.50;;
10100;SDS011;5090;51.258;4.436;2023-02-01T15:28:48;17.87;;;3.50;;
10100;SDS011;5090;51.258;4.436;2023-02-01T15:31:30;16.97;;;3.40;;
10100;SDS011;5090;51.258;4.436;2023-02-01T15:33:55;13.63;;;3.00;;
10100;SDS011;5090;51.258;4.436;2023-02-01T15:36:17;19.37;;;3.43;;
10100;SDS011;5090;51.258;4.436;2023-02-01T15:38:42;22.23;;;3.60;;
10100;SDS011;5090;51.258;4.436;2023-02-01T15:41:17;15.10;;;3.70;;
10100;SDS011;5090;51.258;4.436;2023-02-01T15:44:02;13.57;;;3.00;;
10100;SDS011;5090;51.258;4.436;2023-02-01T15:46:28;21.03;;;4.07;;
10100;SDS011;5090;51.258;4.436;2023-02-01T15:48:46;12.53;;;2.80;;
10100;SDS011;5090;51.258;4.436;2023-02-01T15:51:14;15.63;;;3.17;;